sensor_id;sensor_type;location;lat;lon;timestamp;pressure;altitude;pressure_sealevel;temperature;humidity
69593;BME280;56796;50.122;14.468;2024-03-02T00:18:39;969.72;;;8.39;100
69593;BME280;56796;50.122;14.468;2024-03-02T00:38:07;969.56;;;8.43;100
69593;BME280;56796;50.122;14.468;2024-03-02T00:57:34;969.61;;;8.46;100
69593;BME280;56796;50.122;14.468;2024-03-02T01:17:00;969.71;;;8.41;100
69593;BME280;56796;50.122;14.468;2024-03-02T01:36:27;969.66;;;8.43;100
69593;BME280;56796;50.122;14.468;2024-03-02T01:55:53;969.58;;;8.39;100
69593;BME280;56796;50.122;14.468;2024-03-02T02:15:22;969.47;;;8.35;100
69593;BME280;56796;50.122;14.468;2024-03-02T02:34:47;969.42;;;8.37;100
69593;BME280;56796;50.122;14.468;2024-03-02T02:54:16;969.45;;;8.29;100
69593;BME280;56796;50.122;14.468;2024-03-02T03:13:41;969.44;;;8.3;100
69593;BME280;56796;50.122;14.468;2024-03-02T03:33:08;969.52;;;8.18;100
69593;BME280;56796;50.122;14.468;2024-03-02T03:52:35;969.66;;;8.01;100
69593;BME280;56796;50.122;14.468;2024-03-02T04:12:01;969.72;;;7.9;100
69593;BME280;56796;50.122;14.468;2024-03-02T04:31:26;970;;;7.87;100
69593;BME280;56796;50.122;14.468;2024-03-02T04:50:53;970.09;;;7.86;100
69593;BME280;56796;50.122;14.468;2024-03-02T05:10:19;970.35;;;7.76;99.83
69593;BME280;56796;50.122;14.468;2024-03-02T05:29:45;970.44;;;7.71;99.41
69593;BME280;56796;50.122;14.468;2024-03-02T05:49:26;970.76;;;7.71;98.91
69593;BME280;56796;50.122;14.468;2024-03-02T06:08:31;970.89;;;7.71;97.89
69593;BME280;56796;50.122;14.468;2024-03-02T06:27:58;970.96;;;7.76;96.71
69593;BME280;56796;50.122;14.468;2024-03-02T06:47:25;971.08;;;7.88;95.55
69593;BME280;56796;50.122;14.468;2024-03-02T07:06:52;971.32;;;8.09;94.75
69593;BME280;56796;50.122;14.468;2024-03-02T07:26:19;971.57;;;8.14;94.74
69593;BME280;56796;50.122;14.468;2024-03-02T07:45:46;971.63;;;8.67;92.95
69593;BME280;56796;50.122;14.468;2024-03-02T08:05:18;971.42;;;10.63;86.51
69593;BME280;56796;50.122;14.468;2024-03-02T08:24:52;971.56;;;11.65;80.81
69593;BME280;56796;50.122;14.468;2024-03-02T08:44:22;971.64;;;10.93;81.57
69593;BME280;56796;50.122;14.468;2024-03-02T09:03:36;971.71;;;9.85;84.6
69593;BME280;56796;50.122;14.468;2024-03-02T09:23:02;971.78;;;10.27;82.24
69593;BME280;56796;50.122;14.468;2024-03-02T09:42:32;971.68;;;11.36;78.41
69593;BME280;56796;50.122;14.468;2024-03-02T10:02:02;971.66;;;11.66;77.43
69593;BME280;56796;50.122;14.468;2024-03-02T10:21:29;971.79;;;11.19;77.07
69593;BME280;56796;50.122;14.468;2024-03-02T10:40:55;971.68;;;10.96;78.95
69593;BME280;56796;50.122;14.468;2024-03-02T11:00:24;971.35;;;13.83;72.29
69593;BME280;56796;50.122;14.468;2024-03-02T11:20:00;971.37;;;13.24;69.12
69593;BME280;56796;50.122;14.468;2024-03-02T11:39:32;971.09;;;15.04;66.2
69593;BME280;56796;50.122;14.468;2024-03-02T11:59:08;971.05;;;17;60.11
69593;BME280;56796;50.122;14.468;2024-03-02T12:18:34;971.05;;;14.55;62.87
69593;BME280;56796;50.122;14.468;2024-03-02T12:37:49;971.06;;;13.07;68.29
69593;BME280;56796;50.122;14.468;2024-03-02T12:57:08;970.98;;;11.77;74.13
69593;BME280;56796;50.122;14.468;2024-03-02T13:16:31;970.92;;;11.39;75.46
69593;BME280;56796;50.122;14.468;2024-03-02T13:35:56;970.88;;;11.14;77.88
69593;BME280;56796;50.122;14.468;2024-03-02T13:55:22;970.8;;;11.24;76.54
69593;BME280;56796;50.122;14.468;2024-03-02T14:14:48;970.75;;;10.97;77.65
69593;BME280;56796;50.122;14.468;2024-03-02T14:34:14;970.62;;;10.94;79.56
69593;BME280;56796;50.122;14.468;2024-03-02T14:53:41;970.5;;;10.94;80.97
69593;BME280;56796;50.122;14.468;2024-03-02T15:13:07;970.24;;;11.05;82.55
69593;BME280;56796;50.122;14.468;2024-03-02T15:32:34;970.26;;;11.15;81.88
69593;BME280;56796;50.122;14.468;2024-03-02T15:52:03;970.12;;;11.08;82.44
69593;BME280;56796;50.122;14.468;2024-03-02T16:11:32;970.01;;;11.07;82.81
69593;BME280;56796;50.122;14.468;2024-03-02T16:30:51;970.01;;;10.91;83.06
69593;BME280;56796;50.122;14.468;2024-03-02T16:50:21;970.22;;;10.7;81.98
69593;BME280;56796;50.122;14.468;2024-03-02T17:09:38;970.24;;;10.4;81.67
69593;BME280;56796;50.122;14.468;2024-03-02T17:29:04;970.36;;;10.38;82.07
69593;BME280;56796;50.122;14.468;2024-03-02T17:48:30;970.33;;;10.52;81.77
69593;BME280;56796;50.122;14.468;2024-03-02T18:07:58;970.25;;;10.66;81.18
69593;BME280;56796;50.122;14.468;2024-03-02T18:27:25;970.23;;;10.58;83.05
69593;BME280;56796;50.122;14.468;2024-03-02T18:46:52;970.16;;;10.53;84.33
69593;BME280;56796;50.122;14.468;2024-03-02T19:06:19;970.1;;;10.17;86.61
69593;BME280;56796;50.122;14.468;2024-03-02T19:25:45;970.04;;;9.77;88.9
69593;BME280;56796;50.122;14.468;2024-03-02T19:45:10;970.11;;;9.35;91.1
69593;BME280;56796;50.122;14.468;2024-03-02T20:04:39;970.05;;;9.22;90.95
69593;BME280;56796;50.122;14.468;2024-03-02T20:24:00;970.1;;;9.22;90.24
69593;BME280;56796;50.122;14.468;2024-03-02T20:43:25;970.01;;;9.24;89.84
69593;BME280;56796;50.122;14.468;2024-03-02T21:02:53;969.95;;;9.18;90.78
69593;BME280;56796;50.122;14.468;2024-03-02T21:22:20;969.91;;;9.49;87.73
69593;BME280;56796;50.122;14.468;2024-03-02T21:41:47;969.91;;;9.49;87.05
69593;BME280;56796;50.122;14.468;2024-03-02T22:01:15;969.85;;;9.43;87.32
69593;BME280;56796;50.122;14.468;2024-03-02T22:20:41;969.62;;;9.39;87.37
69593;BME280;56796;50.122;14.468;2024-03-02T22:40:08;969.49;;;9.1;89.48
69593;BME280;56796;50.122;14.468;2024-03-02T22:59:34;969.41;;;9.12;89.21
69593;BME280;56796;50.122;14.468;2024-03-02T23:19:02;969.33;;;9;89.7
69593;BME280;56796;50.122;14.468;2024-03-02T23:38:28;969.23;;;9.08;89.18
69593;BME280;56796;50.122;14.468;2024-03-02T23:57:56;969.11;;;9.06;89.25
